Time;durP1;ratioP1;P1;durP2;ratioP2;P2;SDS_P1;SDS_P2;PMS_P1;PMS_P2;Temp;Humidity;BMP_temperature;BMP_pressure;BME280_temperature;BME280_humidity;BME280_pressure;Samples;Min_cycle;Max_cycle;Signal;HPM_P1;HPM_P2
2022/06/05 00:00:44;;;;;;;12.40;9.18;;;12.20;99.90;;;;;;4992970;28;20214;-62
2022/06/05 00:03:23;;;;;;;20.45;9.95;;;12.30;99.90;;;;;;4997168;28;20726;-62
2022/06/05 00:05:55;;;;;;;14.80;9.43;;;12.30;99.90;;;;;;5022431;28;20221;-62
2022/06/05 00:08:28;;;;;;;11.75;9.18;;;12.20;99.90;;;;;;5009442;28;21071;-62
2022/06/05 00:10:56;;;;;;;12.35;9.40;;;12.20;99.90;;;;;;5009585;28;20197;-62
2022/06/05 00:13:31;;;;;;;17.02;10.30;;;12.20;99.90;;;;;;5022362;28;20232;-62
2022/06/05 00:15:58;;;;;;;19.85;10.25;;;12.10;99.90;;;;;;5016572;28;20211;-62
2022/06/05 00:18:26;;;;;;;13.45;9.80;;;12.10;99.90;;;;;;5008418;28;20205;-62
2022/06/05 00:20:54;;;;;;;13.40;9.75;;;12.20;99.90;;;;;;5007620;28;20200;-62
2022/06/05 00:23:21;;;;;;;14.18;9.68;;;12.20;99.90;;;;;;5018130;28;20210;-62
2022/06/05 00:25:52;;;;;;;12.48;9.50;;;12.20;99.90;;;;;;4990958;28;20700;-62
2022/06/05 00:28:27;;;;;;;16.63;9.95;;;12.10;99.90;;;;;;5026952;28;20201;-61
2022/06/05 00:31:04;;;;;;;12.65;9.73;;;12.10;99.90;;;;;;5012425;28;20205;-62
2022/06/05 00:33:37;;;;;;;13.95;9.57;;;12.30;99.90;;;;;;4996768;28;20202;-62
2022/06/05 00:36:15;;;;;;;15.07;10.05;;;12.10;99.90;;;;;;5023333;28;20205;-62
2022/06/05 00:38:50;;;;;;;17.02;10.38;;;12.10;99.90;;;;;;5008344;28;21532;-62
2022/06/05 00:41:40;;;;;;;13.10;9.93;;;12.10;99.90;;;;;;5002551;28;20702;-62
2022/06/05 00:44:09;;;;;;;17.00;10.15;;;12.10;99.90;;;;;;5012350;28;20220;-62
2022/06/05 00:46:39;;;;;;;12.98;10.07;;;12.10;99.90;;;;;;5001566;28;20225;-61
2022/06/05 00:49:08;;;;;;;20.15;10.77;;;13.10;99.90;;;;;;5002863;28;21407;-63
2022/06/05 00:51:35;;;;;;;16.70;9.98;;;12.20;99.90;;;;;;5014715;28;20203;-62
2022/06/05 00:54:02;;;;;;;12.35;9.90;;;12.10;99.90;;;;;;5022802;28;20193;-62
2022/06/05 00:56:29;;;;;;;15.90;10.32;;;12.00;99.90;;;;;;4997899;28;23398;-61
2022/06/05 00:58:56;;;;;;;13.05;10.32;;;12.00;99.90;;;;;;5012169;28;20246;-62
2022/06/05 01:01:22;;;;;;;16.90;10.25;;;11.70;99.90;;;;;;4999238;28;20221;-62
2022/06/05 01:03:51;;;;;;;12.73;9.48;;;12.00;99.90;;;;;;5014320;28;20201;-62
2022/06/05 01:06:19;;;;;;;11.57;8.85;;;12.00;99.90;;;;;;5009952;28;20232;-62
2022/06/05 01:08:46;;;;;;;16.02;9.60;;;11.90;99.90;;;;;;5026829;28;20206;-62
2022/06/05 01:11:18;;;;;;;12.82;8.95;;;9.60;99.90;;;;;;4988684;28;20206;-62
2022/06/05 01:13:56;;;;;;;13.07;9.82;;;11.80;99.90;;;;;;5030568;28;20204;-62
2022/06/05 01:16:28;;;;;;;14.63;9.35;;;11.80;99.90;;;;;;5013580;28;21119;-62
2022/06/05 01:19:10;;;;;;;14.75;10.00;;;11.70;99.90;;;;;;5025310;28;20238;-62
2022/06/05 01:22:09;;;;;;;10.27;8.15;;;11.70;99.90;;;;;;5012995;28;20201;-62
2022/06/05 01:25:03;;;;;;;12.32;9.38;;;11.60;99.90;;;;;;5013847;28;20203;-62
2022/06/05 01:27:34;;;;;;;11.23;9.07;;;11.70;99.90;;;;;;5009643;28;20213;-62
2022/06/05 01:30:08;;;;;;;13.90;9.23;;;11.60;99.90;;;;;;5010094;28;20205;-62
2022/06/05 01:32:39;;;;;;;12.88;8.73;;;11.60;99.90;;;;;;5019624;28;20202;-62
2022/06/05 01:35:17;;;;;;;13.60;10.15;;;11.70;99.90;;;;;;5007356;28;20581;-62
2022/06/05 01:37:47;;;;;;;15.32;10.00;;;11.70;99.90;;;;;;5018335;28;20370;-62
2022/06/05 01:40:19;;;;;;;13.75;8.95;;;11.80;99.90;;;;;;5023555;28;20232;-62
2022/06/05 01:42:50;;;;;;;14.93;9.35;;;11.80;99.90;;;;;;5013994;28;20213;-62
2022/06/05 01:45:21;;;;;;;13.27;10.18;;;11.80;99.90;;;;;;5027374;28;20190;-62
2022/06/05 01:47:52;;;;;;;15.43;9.90;;;11.80;99.90;;;;;;5015106;28;20202;-62
2022/06/05 01:50:23;;;;;;;12.52;9.32;;;11.90;99.90;;;;;;5019476;28;20205;-62
2022/06/05 01:52:55;;;;;;;14.55;9.32;;;11.90;99.90;;;;;;5012419;28;20217;-62
2022/06/05 01:55:26;;;;;;;15.15;10.02;;;11.90;99.90;;;;;;5006850;28;20201;-62
2022/06/05 01:57:58;;;;;;;13.27;9.15;;;11.90;99.90;;;;;;5017913;28;20210;-62
2022/06/05 02:00:25;;;;;;;12.93;9.27;;;11.80;99.90;;;;;;5021589;28;20221;-62
2022/06/05 02:02:56;;;;;;;13.48;8.45;;;11.70;99.90;;;;;;5012756;28;20205;-62
2022/06/05 02:05:25;;;;;;;9.52;7.53;;;11.70;99.90;;;;;;5015796;28;20213;-62
2022/06/05 02:07:57;;;;;;;13.98;8.98;;;11.60;99.90;;;;;;4999322;28;20213;-62
2022/06/05 02:10:28;;;;;;;11.00;8.18;;;11.50;99.90;;;;;;5029118;28;20194;-62
2022/06/05 02:12:59;;;;;;;9.57;7.38;;;11.50;99.90;;;;;;5016334;28;20206;-62
2022/06/05 02:15:27;;;;;;;12.02;7.70;;;11.50;99.90;;;;;;5006634;28;21125;-62
2022/06/05 02:17:55;;;;;;;10.02;7.53;;;11.50;99.90;;;;;;5022720;28;20742;-62
2022/06/05 02:20:22;;;;;;;10.85;7.45;;;11.30;99.90;;;;;;5030125;28;20213;-62
2022/06/05 02:22:51;;;;;;;9.18;7.45;;;11.40;99.90;;;;;;4996218;28;20206;-62
2022/06/05 02:25:24;;;;;;;7.95;6.75;;;11.40;99.90;;;;;;5023591;28;20194;-62
2022/06/05 02:27:51;;;;;;;9.10;7.18;;;11.50;99.90;;;;;;5029873;28;20671;-61
2022/06/05 02:30:20;;;;;;;8.95;7.05;;;10.80;99.90;;;;;;5008386;28;20202;-62
2022/06/05 02:33:07;;;;;;;8.73;7.00;;;11.50;99.90;;;;;;5017159;28;20201;-62
2022/06/05 02:35:41;;;;;;;9.95;7.03;;;11.50;99.90;;;;;;5018001;28;20705;-62
2022/06/05 02:38:23;;;;;;;9.27;6.40;;;11.50;99.90;;;;;;5006882;28;20213;-62
2022/06/05 02:40:59;;;;;;;7.40;6.35;;;11.40;99.90;;;;;;5020436;28;20236;-62
2022/06/05 02:43:31;;;;;;;9.38;6.68;;;11.40;99.90;;;;;;5026426;28;20197;-62
2022/06/05 02:46:07;;;;;;;9.23;6.47;;;11.60;99.90;;;;;;5007287;28;20236;-63
2022/06/05 02:48:39;;;;;;;8.90;5.88;;;13.60;99.90;;;;;;5017482;28;20212;-62
2022/06/05 02:51:13;;;;;;;8.20;6.53;;;11.30;99.90;;;;;;5025005;28;20679;-62
2022/06/05 02:53:47;;;;;;;10.32;7.22;;;11.40;99.90;;;;;;4989341;28;20715;-62
2022/06/05 02:56:15;;;;;;;7.03;5.78;;;11.20;99.90;;;;;;5014150;28;20209;-62
2022/06/05 02:58:42;;;;;;;10.10;6.80;;;11.20;99.90;;;;;;5016878;28;20969;-62
2022/06/05 03:03:54;;;;;;;8.85;6.70;;;11.30;99.90;;;;;;5021191;28;20342;-63
2022/06/05 03:06:21;;;;;;;9.77;6.53;;;11.30;99.90;;;;;;5006677;28;20596;-62
2022/06/05 03:08:48;;;;;;;7.53;6.25;;;11.30;99.90;;;;;;4986210;28;20214;-62
2022/06/05 03:11:15;;;;;;;7.68;6.20;;;11.30;99.90;;;;;;4999859;28;20195;-62
2022/06/05 03:13:41;;;;;;;11.15;6.55;;;11.20;99.90;;;;;;5013345;28;20209;-62
2022/06/05 03:16:10;;;;;;;9.50;6.28;;;10.80;99.90;;;;;;5000819;28;20214;-62
2022/06/05 03:18:38;;;;;;;10.05;6.78;;;11.30;99.90;;;;;;5026395;28;20201;-61
2022/06/05 03:21:05;;;;;;;9.52;7.13;;;13.00;99.90;;;;;;5015822;28;20213;-62
2022/06/05 03:23:32;;;;;;;10.18;6.30;;;9.60;99.90;;;;;;5007553;28;20221;-62
2022/06/05 03:26:00;;;;;;;10.93;6.53;;;11.30;99.90;;;;;;5009815;28;20233;-62
2022/06/05 03:28:27;;;;;;;9.40;7.03;;;11.30;99.90;;;;;;5011808;28;20219;-62
2022/06/05 03:30:54;;;;;;;13.15;6.38;;;11.30;99.90;;;;;;4996847;28;20211;-62
2022/06/05 03:33:22;;;;;;;10.05;7.25;;;11.30;99.90;;;;;;5027362;28;20231;-62
2022/06/05 03:35:49;;;;;;;9.82;7.07;;;11.30;99.90;;;;;;5017644;28;20585;-62
2022/06/05 03:38:16;;;;;;;9.70;7.13;;;10.40;99.90;;;;;;5017892;28;20211;-62
2022/06/05 03:40:44;;;;;;;10.60;7.25;;;11.30;99.90;;;;;;5013856;28;20229;-62
2022/06/05 03:43:12;;;;;;;8.70;6.93;;;11.30;99.90;;;;;;5006502;28;20647;-62
2022/06/05 03:45:39;;;;;;;10.10;7.40;;;11.40;99.90;;;;;;5031615;28;20198;-62
2022/06/05 03:48:07;;;;;;;9.20;7.53;;;11.40;99.90;;;;;;5011598;28;20244;-63
2022/06/05 03:50:39;;;;;;;10.68;6.82;;;11.40;99.90;;;;;;5012475;28;20296;-62
2022/06/05 03:53:06;;;;;;;9.52;6.57;;;11.40;99.90;;;;;;5003696;28;20209;-62
2022/06/05 03:55:34;;;;;;;10.15;7.03;;;11.40;99.90;;;;;;5014345;28;20205;-62
2022/06/05 03:58:00;;;;;;;12.13;7.10;;;11.40;99.90;;;;;;5013575;28;20209;-61
2022/06/05 04:00:27;;;;;;;9.45;6.45;;;11.40;99.90;;;;;;5016023;28;20225;-62
2022/06/05 04:02:54;;;;;;;10.00;6.70;;;11.30;99.90;;;;;;5003870;28;20223;-62
2022/06/05 04:05:22;;;;;;;11.00;7.32;;;11.50;99.90;;;;;;5027862;28;20678;-62
2022/06/05 04:07:51;;;;;;;13.15;8.23;;;11.50;99.90;;;;;;5018050;28;20225;-62
2022/06/05 04:10:18;;;;;;;9.43;7.18;;;11.60;99.90;;;;;;5009470;28;20351;-62
2022/06/05 04:12:46;;;;;;;8.85;7.50;;;11.70;99.90;;;;;;5009487;28;20217;-62
2022/06/05 04:15:13;;;;;;;9.18;7.28;;;11.30;99.90;;;;;;5014031;28;20215;-62
2022/06/05 04:17:40;;;;;;;12.02;7.53;;;11.90;99.90;;;;;;5012747;28;20224;-62
2022/06/05 04:20:08;;;;;;;10.35;7.63;;;12.10;99.90;;;;;;5023523;28;20197;-62
2022/06/05 04:22:36;;;;;;;12.50;7.55;;;12.10;99.90;;;;;;5011537;28;20205;-62
2022/06/05 04:25:05;;;;;;;12.27;7.20;;;12.20;99.90;;;;;;5010817;28;20212;-62
2022/06/05 04:27:32;;;;;;;9.88;6.95;;;12.30;99.90;;;;;;5004422;28;20240;-62
2022/06/05 04:29:59;;;;;;;10.88;8.25;;;12.30;99.90;;;;;;5009016;28;20209;-62
2022/06/05 04:32:26;;;;;;;10.88;6.95;;;12.40;99.90;;;;;;5024294;28;20193;-62
2022/06/05 04:34:53;;;;;;;9.13;6.60;;;12.50;99.90;;;;;;5002101;28;20553;-62
2022/06/05 04:37:20;;;;;;;8.57;7.03;;;13.10;99.90;;;;;;5017936;28;20202;-62
2022/06/05 04:39:47;;;;;;;10.85;8.05;;;12.60;99.90;;;;;;5031792;28;20228;-62
2022/06/05 04:42:15;;;;;;;9.93;7.13;;;12.60;99.90;;;;;;4997904;28;21417;-62
2022/06/05 04:44:42;;;;;;;11.90;7.15;;;12.70;99.90;;;;;;5022119;28;20198;-62
2022/06/05 04:47:08;;;;;;;13.10;7.93;;;12.80;99.90;;;;;;5012702;28;20284;-62
2022/06/05 04:49:35;;;;;;;9.02;7.18;;;12.90;99.90;;;;;;5011068;28;20205;-62
2022/06/05 04:52:02;;;;;;;11.35;7.15;;;12.90;99.90;;;;;;5030303;28;20228;-62
2022/06/05 04:54:29;;;;;;;9.60;7.40;;;13.00;99.90;;;;;;5006929;28;20782;-62
2022/06/05 04:56:56;;;;;;;10.68;6.75;;;13.10;99.90;;;;;;5033691;28;20197;-62
2022/06/05 04:59:24;;;;;;;8.98;6.90;;;13.30;99.90;;;;;;5005829;28;20205;-62
2022/06/05 05:01:51;;;;;;;9.63;6.95;;;13.20;99.90;;;;;;5026778;28;20197;-62
2022/06/05 05:04:18;;;;;;;11.60;6.85;;;13.30;99.90;;;;;;5008962;28;20220;-62
2022/06/05 05:06:45;;;;;;;9.32;6.40;;;13.40;99.90;;;;;;5023452;28;20702;-62
2022/06/05 05:09:12;;;;;;;11.48;6.53;;;13.40;99.90;;;;;;5011040;28;20209;-62
2022/06/05 05:11:39;;;;;;;11.50;7.10;;;13.50;99.90;;;;;;5018762;28;20205;-62
2022/06/05 05:14:06;;;;;;;8.93;6.55;;;13.80;99.90;;;;;;4998355;28;20202;-62
2022/06/05 05:16:35;;;;;;;9.15;6.07;;;13.60;99.90;;;;;;5023365;28;20201;-62
2022/06/05 05:19:01;;;;;;;6.05;5.45;;;13.70;99.90;;;;;;5015545;28;20208;-62
2022/06/05 05:21:29;;;;;;;9.07;6.70;;;13.80;99.90;;;;;;5017161;28;20206;-62
2022/06/05 05:23:56;;;;;;;7.43;6.00;;;13.90;99.90;;;;;;5022199;28;20206;-62
2022/06/05 05:26:25;;;;;;;8.85;6.30;;;13.90;99.90;;;;;;4996519;28;20210;-62
2022/06/05 05:28:52;;;;;;;8.40;6.07;;;14.00;99.90;;;;;;5026399;28;20214;-63
2022/06/05 05:31:22;;;;;;;14.82;6.45;;;14.10;99.90;;;;;;5000215;28;20205;-62
2022/06/05 05:33:51;;;;;;;9.07;5.93;;;14.20;99.90;;;;;;5015027;28;20586;-62
2022/06/05 05:36:19;;;;;;;7.13;5.60;;;14.30;99.90;;;;;;5012653;28;20210;-62
2022/06/05 05:44:13;;;;;;;6.95;5.85;;;14.50;99.90;;;;;;5021604;28;20220;-62
2022/06/05 05:46:41;;;;;;;6.72;4.97;;;15.20;99.90;;;;;;5007628;28;20240;-62
2022/06/05 05:49:09;;;;;;;6.07;5.43;;;14.60;99.90;;;;;;5013648;28;20198;-62
2022/06/05 05:51:36;;;;;;;7.38;5.68;;;14.70;99.90;;;;;;5016425;28;20960;-63
2022/06/05 05:54:04;;;;;;;9.10;5.32;;;14.80;99.90;;;;;;5001922;28;20210;-62
2022/06/05 05:56:31;;;;;;;8.30;5.68;;;14.90;99.90;;;;;;5019068;28;21002;-62
2022/06/05 05:58:58;;;;;;;7.35;5.82;;;15.00;99.90;;;;;;5017886;28;20276;-63
2022/06/05 06:01:25;;;;;;;5.22;4.70;;;15.00;99.90;;;;;;4998318;28;20220;-62
2022/06/05 06:03:52;;;;;;;6.68;4.75;;;15.10;99.90;;;;;;5014036;28;20873;-62
2022/06/05 06:06:24;;;;;;;6.07;5.03;;;15.00;99.90;;;;;;5012157;28;20193;-63
2022/06/05 06:08:51;;;;;;;6.80;5.15;;;15.10;99.90;;;;;;5009375;28;20808;-62
2022/06/05 06:11:18;;;;;;;6.32;4.97;;;15.10;99.90;;;;;;5019662;28;20243;-62
2022/06/05 06:13:45;;;;;;;6.40;5.32;;;15.20;99.90;;;;;;5005743;28;20287;-63
2022/06/05 06:16:12;;;;;;;8.48;4.72;;;15.20;99.90;;;;;;5006889;28;20205;-62
2022/06/05 06:18:39;;;;;;;9.93;4.88;;;15.30;99.90;;;;;;5007940;28;20240;-63
2022/06/05 06:21:06;;;;;;;5.30;4.75;;;15.60;99.90;;;;;;5021446;28;20211;-62
2022/06/05 06:23:34;;;;;;;8.50;5.53;;;15.50;99.90;;;;;;5004161;28;20232;-62
2022/06/05 06:26:05;;;;;;;6.15;4.97;;;15.60;99.90;;;;;;5001058;28;20672;-62
2022/06/05 06:28:31;;;;;;;7.18;4.97;;;15.60;99.90;;;;;;5014373;28;20229;-62
2022/06/05 06:30:58;;;;;;;6.15;5.10;;;;;;;;;;5003239;28;20209;-62
2022/06/05 06:33:25;;;;;;;7.25;4.78;;;15.60;99.90;;;;;;5008337;28;20206;-62
2022/06/05 06:35:52;;;;;;;5.38;4.50;;;15.80;99.90;;;;;;5013311;28;20707;-62
2022/06/05 06:38:19;;;;;;;7.45;5.07;;;15.80;99.90;;;;;;5002394;28;20716;-62
2022/06/05 06:40:47;;;;;;;6.78;4.68;;;15.90;99.90;;;;;;5016408;28;20252;-62
2022/06/05 06:43:15;;;;;;;6.15;4.53;;;15.90;99.90;;;;;;5011127;28;20209;-62
2022/06/05 06:45:42;;;;;;;5.97;4.90;;;16.00;99.90;;;;;;5007323;28;20633;-62
2022/06/05 06:48:09;;;;;;;7.53;4.70;;;16.00;99.90;;;;;;5007703;28;20233;-62
2022/06/05 06:50:37;;;;;;;6.13;4.70;;;16.10;99.90;;;;;;5011016;28;20217;-63
2022/06/05 06:53:04;;;;;;;5.53;4.72;;;16.10;99.90;;;;;;5008769;28;20248;-62
2022/06/05 06:55:32;;;;;;;6.93;4.78;;;16.20;99.90;;;;;;5021117;28;20267;-62
2022/06/05 06:58:00;;;;;;;6.30;4.78;;;16.30;99.90;;;;;;5012595;28;20201;-63
2022/06/05 07:00:27;;;;;;;4.65;4.13;;;16.30;99.90;;;;;;5001643;28;20206;-63
2022/06/05 07:02:54;;;;;;;7.47;3.83;;;16.40;99.90;;;;;;5008272;28;20217;-62
2022/06/05 07:05:21;;;;;;;6.00;4.60;;;16.50;99.90;;;;;;4999048;28;20225;-62
2022/06/05 07:07:48;;;;;;;6.75;4.60;;;16.50;99.90;;;;;;5016563;28;20217;-62
2022/06/05 07:10:15;;;;;;;4.80;4.30;;;16.40;99.90;;;;;;5006678;28;20216;-63
2022/06/05 07:12:41;;;;;;;5.63;5.00;;;16.50;99.90;;;;;;5001694;28;20212;-62
2022/06/05 07:15:11;;;;;;;6.53;4.40;;;16.50;99.90;;;;;;5013405;28;20214;-63
2022/06/05 07:17:37;;;;;;;4.43;4.00;;;16.50;99.90;;;;;;5013796;28;20202;-62
2022/06/05 07:20:05;;;;;;;5.18;4.40;;;16.70;99.90;;;;;;5006435;28;20691;-62
2022/06/05 07:22:32;;;;;;;6.95;4.57;;;16.60;99.90;;;;;;4994566;28;20205;-63
2022/06/05 07:24:59;;;;;;;5.60;4.60;;;16.80;99.90;;;;;;5005182;28;20214;-62
2022/06/05 07:27:26;;;;;;;4.53;4.13;;;17.10;99.90;;;;;;5016816;28;20228;-63
2022/06/05 07:29:54;;;;;;;5.15;4.35;;;17.20;99.90;;;;;;5000559;28;20225;-63
2022/06/05 07:32:22;;;;;;;7.75;4.20;;;17.30;99.90;;;;;;5006470;28;20248;-63
2022/06/05 07:34:50;;;;;;;6.78;4.43;;;17.30;99.90;;;;;;4988692;28;20205;-63
2022/06/05 07:37:17;;;;;;;4.65;4.20;;;17.30;99.90;;;;;;5021328;28;20244;-62
2022/06/05 07:39:45;;;;;;;4.10;3.70;;;17.30;99.90;;;;;;5010638;28;20217;-63
2022/06/05 07:42:12;;;;;;;4.50;3.90;;;17.30;99.90;;;;;;4988627;28;20248;-63
2022/06/05 07:44:39;;;;;;;4.65;4.07;;;17.60;99.90;;;;;;5013680;28;20202;-62
2022/06/05 07:47:07;;;;;;;5.28;4.20;;;17.50;99.90;;;;;;5000745;28;20212;-63
2022/06/05 07:49:38;;;;;;;6.95;3.97;;;17.60;99.90;;;;;;5018153;28;20204;-63
2022/06/05 07:54:50;;;;;;;5.35;3.88;;;17.70;99.90;;;;;;5018796;28;20220;-62
2022/06/05 07:57:18;;;;;;;4.15;3.75;;;17.80;99.90;;;;;;5011195;28;21007;-63
2022/06/05 07:59:47;;;;;;;4.53;4.13;;;17.90;99.90;;;;;;5015116;22;20233;-63
2022/06/05 08:02:18;;;;;;;4.95;3.97;;;17.90;99.90;;;;;;5013816;28;20209;-63
2022/06/05 08:04:46;;;;;;;7.07;3.88;;;17.90;99.90;;;;;;5017474;28;20205;-63
2022/06/05 08:07:18;;;;;;;4.13;3.55;;;17.90;99.90;;;;;;4999562;28;20216;-62
2022/06/05 08:09:45;;;;;;;4.43;4.00;;;18.10;99.90;;;;;;5019119;28;20210;-62
2022/06/05 08:12:14;;;;;;;4.45;3.90;;;18.20;99.90;;;;;;5006314;28;20244;-62
2022/06/05 08:14:43;;;;;;;4.72;3.63;;;18.30;99.90;;;;;;5018033;28;20208;-62
2022/06/05 08:17:12;;;;;;;5.50;3.78;;;18.50;99.90;;;;;;5009358;28;20202;-62
2022/06/05 08:19:41;;;;;;;8.68;4.15;;;18.50;99.90;;;;;;5008192;28;20198;-63
2022/06/05 08:22:14;;;;;;;5.40;4.18;;;18.60;99.90;;;;;;5005746;28;20201;-62
2022/06/05 08:24:41;;;;;;;4.38;3.97;;;18.70;99.90;;;;;;5012589;28;20205;-62
2022/06/05 08:27:10;;;;;;;5.20;3.90;;;18.60;99.90;;;;;;4980229;28;20691;-62
2022/06/05 08:29:37;;;;;;;4.30;3.90;;;18.80;99.90;;;;;;5007965;28;20698;-62
2022/06/05 08:32:04;;;;;;;4.35;3.90;;;18.80;99.90;;;;;;4982623;28;20762;-63
2022/06/05 08:34:31;;;;;;;4.15;3.50;;;18.70;99.90;;;;;;4999391;28;20217;-62
2022/06/05 08:42:32;;;;;;;4.60;3.45;;;19.00;99.90;;;;;;4999101;28;20280;-63
2022/06/05 08:45:04;;;;;;;6.28;4.00;;;19.10;99.90;;;;;;5005195;28;20197;-63
2022/06/05 08:47:36;;;;;;;5.50;3.70;;;19.10;99.90;;;;;;4996138;28;20211;-62
2022/06/05 08:50:12;;;;;;;4.70;3.83;;;19.10;99.90;;;;;;4984958;28;20948;-63
2022/06/05 08:52:49;;;;;;;4.90;3.72;;;19.40;99.90;;;;;;4989395;28;20214;-63
2022/06/05 08:55:26;;;;;;;4.95;3.95;;;19.30;99.90;;;;;;5008767;28;20229;-62
2022/06/05 08:57:56;;;;;;;5.72;4.18;;;19.30;99.90;;;;;;4976864;28;20701;-62
2022/06/05 09:00:32;;;;;;;4.78;3.78;;;19.30;99.90;;;;;;5009944;28;20234;-62
2022/06/05 09:03:03;;;;;;;7.35;4.28;;;19.40;99.90;;;;;;4975280;28;20232;-63
2022/06/05 09:05:35;;;;;;;3.80;3.38;;;19.40;99.90;;;;;;4998565;28;20198;-62
2022/06/05 09:08:05;;;;;;;4.10;3.60;;;19.50;99.90;;;;;;4977359;28;20230;-62
2022/06/05 09:10:38;;;;;;;4.13;3.55;;;19.40;99.90;;;;;;4984256;28;20194;-62
2022/06/05 09:13:09;;;;;;;5.78;3.95;;;19.50;99.90;;;;;;4982841;28;20218;-62
2022/06/05 09:15:40;;;;;;;5.20;3.78;;;19.50;99.90;;;;;;5001759;28;20202;-63
2022/06/05 09:18:15;;;;;;;7.15;3.55;;;19.70;99.90;;;;;;4983709;28;20241;-62
2022/06/05 09:20:48;;;;;;;4.55;3.80;;;19.70;99.90;;;;;;5002102;28;20222;-62
2022/06/05 09:23:21;;;;;;;4.15;3.60;;;19.70;99.90;;;;;;4976690;28;20202;-63
2022/06/05 09:25:57;;;;;;;7.60;3.97;;;19.70;99.90;;;;;;5003412;28;20229;-62
2022/06/05 09:28:44;;;;;;;4.45;3.88;;;19.70;99.90;;;;;;4994639;28;20330;-62
2022/06/05 09:31:30;;;;;;;4.65;3.65;;;19.80;99.90;;;;;;4982909;28;21033;-63
2022/06/05 09:34:01;;;;;;;4.20;3.50;;;19.70;99.90;;;;;;4969886;28;20343;-62
2022/06/05 09:36:31;;;;;;;3.95;3.58;;;19.80;99.90;;;;;;4986663;28;20261;-62
2022/06/05 09:39:07;;;;;;;4.65;3.45;;;19.90;99.90;;;;;;4964148;28;20226;-62
2022/06/05 09:41:43;;;;;;;4.43;3.88;;;19.90;99.90;;;;;;4991250;28;20205;-62
2022/06/05 09:44:23;;;;;;;5.05;3.47;;;20.00;99.90;;;;;;4983185;28;20210;-62
2022/06/05 09:46:59;;;;;;;4.88;3.78;;;20.10;99.90;;;;;;4991330;28;22842;-62
2022/06/05 09:49:33;;;;;;;4.65;3.40;;;20.10;99.90;;;;;;4997670;28;20311;-62
2022/06/05 09:52:11;;;;;;;3.92;3.40;;;20.20;99.90;;;;;;4982646;28;20206;-63
2022/06/05 09:54:43;;;;;;;4.32;3.67;;;20.20;99.90;;;;;;4981001;28;20562;-62
2022/06/05 10:00:29;;;;;;;5.65;3.15;;;20.30;99.90;;;;;;4972808;28;20272;-62
2022/06/05 10:03:01;;;;;;;4.43;3.95;;;20.40;99.90;;;;;;4978012;28;20206;-63
2022/06/05 10:05:30;;;;;;;5.60;3.58;;;20.60;99.90;;;;;;5004829;28;20752;-62
2022/06/05 10:08:04;;;;;;;3.63;3.20;;;20.50;99.90;;;;;;4966368;28;20585;-63
2022/06/05 10:10:37;;;;;;;3.45;3.15;;;20.50;99.90;;;;;;4980521;28;20206;-63
2022/06/05 10:13:19;;;;;;;5.28;3.38;;;20.60;99.90;;;;;;4994038;28;20827;-63
2022/06/05 10:15:53;;;;;;;8.55;3.50;;;20.70;99.90;;;;;;4980660;28;20663;-63
2022/06/05 10:18:27;;;;;;;3.50;3.15;;;20.70;99.90;;;;;;4981008;28;20224;-64
2022/06/05 10:21:12;;;;;;;4.53;3.80;;;20.70;99.90;;;;;;5004204;28;20202;-63
2022/06/05 10:23:48;;;;;;;4.00;3.60;;;20.90;99.90;;;;;;4988562;28;20222;-64
2022/06/05 10:26:29;;;;;;;4.47;3.20;;;20.90;99.90;;;;;;4997092;28;20212;-63
2022/06/05 10:29:11;;;;;;;4.03;3.63;;;20.90;99.90;;;;;;4990695;28;20230;-63
2022/06/05 10:31:44;;;;;;;4.20;3.50;;;21.00;99.90;;;;;;4988605;28;20953;-64
2022/06/05 10:34:19;;;;;;;9.05;4.45;;;20.90;99.90;;;;;;4975584;28;21001;-64
2022/06/05 10:36:55;;;;;;;3.97;3.38;;;20.90;99.90;;;;;;4993505;28;20202;-64
2022/06/05 10:39:27;;;;;;;3.60;3.30;;;21.00;99.90;;;;;;5004333;28;20220;-63
2022/06/05 10:42:12;;;;;;;3.42;3.10;;;20.90;99.90;;;;;;4983634;28;20210;-63
2022/06/05 10:44:50;;;;;;;3.92;3.53;;;21.00;99.90;;;;;;4986402;28;20206;-63
2022/06/05 10:47:31;;;;;;;5.25;3.83;;;21.10;99.90;;;;;;4979642;28;20323;-64
2022/06/05 10:50:05;;;;;;;4.00;3.60;;;21.10;99.90;;;;;;4979246;28;20878;-64
2022/06/05 10:52:37;;;;;;;4.82;3.50;;;21.20;99.90;;;;;;5000504;28;20613;-64
2022/06/05 10:55:30;;;;;;;3.67;3.38;;;21.20;99.90;;;;;;4953748;28;26353;-64
2022/06/05 10:58:06;;;;;;;5.03;3.58;;;21.30;99.90;;;;;;5001147;28;20228;-63
2022/06/05 11:00:52;;;;;;;3.75;3.15;;;21.40;99.90;;;;;;4982297;28;20202;-63
2022/06/05 11:03:27;;;;;;;5.00;3.70;;;21.50;99.90;;;;;;4982568;28;20221;-63
2022/06/05 11:06:07;;;;;;;6.47;4.30;;;21.60;99.90;;;;;;4974368;28;20338;-63
2022/06/05 11:08:43;;;;;;;5.05;4.55;;;21.60;99.90;;;;;;4999242;28;20233;-63
2022/06/05 11:14:10;;;;;;;5.20;3.30;;;21.60;99.90;;;;;;5002983;28;20257;-63
2022/06/05 11:16:44;;;;;;;5.20;3.63;;;21.60;99.90;;;;;;4985121;28;20256;-64
2022/06/05 11:19:18;;;;;;;3.88;3.08;;;21.70;99.90;;;;;;4972532;28;20221;-64
2022/06/05 11:21:49;;;;;;;4.00;3.45;;;21.50;99.90;;;;;;4992736;28;20232;-63
2022/06/05 11:24:23;;;;;;;3.50;3.20;;;22.10;99.90;;;;;;4980632;28;20222;-64
2022/06/05 11:27:00;;;;;;;3.53;3.22;;;21.30;99.90;;;;;;4967288;28;20257;-62
2022/06/05 11:29:35;;;;;;;6.60;5.00;;;21.30;99.90;;;;;;5000798;28;20233;-63
2022/06/05 11:32:26;;;;;;;13.77;9.43;;;21.30;99.90;;;;;;4989493;28;20225;-64
2022/06/05 11:35:00;;;;;;;12.90;8.27;;;21.60;99.90;;;;;;4988634;28;20225;-64
2022/06/05 11:37:45;;;;;;;7.70;4.90;;;21.60;99.90;;;;;;5009642;28;20567;-64
2022/06/05 11:40:24;;;;;;;5.80;4.20;;;21.70;99.90;;;;;;4997692;28;20614;-64
2022/06/05 11:43:00;;;;;;;7.53;4.93;;;21.80;99.90;;;;;;4993392;28;20201;-64
2022/06/05 11:45:40;;;;;;;3.72;3.00;;;21.80;99.90;;;;;;4996791;28;20206;-63
2022/06/05 11:48:16;;;;;;;5.88;3.53;;;21.80;99.90;;;;;;5004073;28;20209;-64
2022/06/05 11:50:48;;;;;;;4.65;3.30;;;21.90;99.90;;;;;;5008497;28;20562;-64
2022/06/05 11:53:21;;;;;;;5.07;3.50;;;22.00;99.90;;;;;;5009950;28;20198;-63
2022/06/05 11:55:55;;;;;;;5.32;3.00;;;22.00;99.90;;;;;;4997549;28;20205;-64
2022/06/05 11:58:29;;;;;;;3.55;3.25;;;22.10;99.90;;;;;;4989047;28;20217;-64
2022/06/05 12:01:00;;;;;;;4.55;4.03;;;22.00;99.90;;;;;;5009796;28;20202;-62
2022/06/05 12:03:35;;;;;;;6.78;3.25;;;22.00;99.90;;;;;;4997229;28;20715;-63
2022/06/05 12:06:09;;;;;;;6.25;3.55;;;22.00;99.90;;;;;;4992460;28;20217;-63
2022/06/05 12:08:40;;;;;;;4.68;3.10;;;21.90;99.90;;;;;;5009720;28;20202;-63
2022/06/05 12:11:10;;;;;;;3.60;3.28;;;22.00;99.90;;;;;;4998901;28;20576;-63
2022/06/05 12:13:53;;;;;;;5.38;3.10;;;22.10;99.90;;;;;;4993694;28;20207;-63
2022/06/05 12:16:32;;;;;;;3.60;3.30;;;22.10;99.90;;;;;;4999882;28;20194;-63
2022/06/05 12:19:09;;;;;;;3.17;2.90;;;22.20;99.90;;;;;;5013058;28;20263;-63
2022/06/05 12:21:58;;;;;;;4.60;3.60;;;22.20;99.90;;;;;;4993841;28;20210;-63
2022/06/05 12:24:29;;;;;;;3.30;3.00;;;22.30;99.90;;;;;;5007998;28;20607;-63
2022/06/05 12:27:00;;;;;;;6.60;3.30;;;22.20;99.90;;;;;;5005105;28;20293;-63
2022/06/05 12:29:33;;;;;;;4.35;3.42;;;22.30;99.90;;;;;;4995056;28;20304;-63
2022/06/05 12:32:03;;;;;;;3.60;3.10;;;22.20;99.90;;;;;;5010889;28;20190;-63
2022/06/05 12:34:42;;;;;;;3.63;2.92;;;22.20;99.90;;;;;;5012378;28;20198;-63
2022/06/05 12:37:19;;;;;;;3.13;2.83;;;22.20;99.90;;;;;;4999839;28;20210;-63
2022/06/05 12:39:49;;;;;;;3.28;2.97;;;22.30;99.90;;;;;;5010131;28;20217;-63
2022/06/05 12:42:28;;;;;;;6.38;2.80;;;22.30;99.90;;;;;;5007341;28;20198;-63
2022/06/05 12:44:57;;;;;;;4.63;3.08;;;22.40;99.90;;;;;;4993798;28;20217;-63
2022/06/05 12:47:55;;;;;;;3.03;2.80;;;22.40;99.90;;;;;;5011147;28;20202;-64
2022/06/05 12:50:37;;;;;;;5.70;3.03;;;22.30;99.90;;;;;;5001502;28;20226;-63
2022/06/05 12:53:13;;;;;;;4.32;3.00;;;22.20;99.90;;;;;;5011675;28;20206;-63
2022/06/05 12:55:46;;;;;;;3.25;2.90;;;22.40;99.90;;;;;;5000524;28;20199;-64
2022/06/05 12:58:19;;;;;;;6.93;3.15;;;22.30;99.90;;;;;;5014047;28;20201;-63
2022/06/05 13:00:52;;;;;;;3.42;2.40;;;22.30;99.90;;;;;;4994244;28;25561;-64
2022/06/05 13:03:25;;;;;;;3.10;2.80;;;22.30;99.90;;;;;;5010140;28;20205;-63
2022/06/05 13:05:57;;;;;;;3.17;2.85;;;22.40;99.90;;;;;;5011178;28;20203;-63
2022/06/05 13:08:31;;;;;;;4.65;3.10;;;22.40;99.90;;;;;;4993872;28;20213;-63
2022/06/05 13:11:09;;;;;;;4.13;3.05;;;22.40;99.90;;;;;;5012596;28;20233;-64
2022/06/05 13:13:45;;;;;;;3.47;2.72;;;22.40;99.90;;;;;;5005263;28;20698;-64
2022/06/05 13:16:23;;;;;;;3.30;2.72;;;22.50;99.90;;;;;;5000238;28;20206;-64
2022/06/05 13:19:16;;;;;;;4.55;2.65;;;22.50;99.90;;;;;;5012151;28;20686;-63
2022/06/05 13:21:51;;;;;;;3.13;2.83;;;22.50;99.90;;;;;;5014715;28;20205;-63
2022/06/05 13:24:31;;;;;;;3.25;2.95;;;22.50;99.90;;;;;;5001815;28;20233;-63
2022/06/05 13:27:10;;;;;;;8.05;3.03;;;22.50;99.90;;;;;;5011863;28;20214;-63